Time;durP1;ratioP1;P1;durP2;ratioP2;P2;SDS_P1;SDS_P2;PMS_P1;PMS_P2;Temp;Humidity;BMP_temperature;BMP_pressure;BME280_temperature;BME280_humidity;BME280_pressure;Samples;Min_cycle;Max_cycle;Signal;HPM_P1;HPM_P2
2023/03/23 00:00:12;;;;;;;7.47;1.70;;;;;;;;;;6236922;28;20308;-76
2023/03/23 00:03:18;;;;;;;6.28;1.90;;;;;;;;;;6235261;28;20476;-76
2023/03/23 00:06:24;;;;;;;4.97;2.08;;;;;;;;;;6236724;28;20312;-76
2023/03/23 00:09:28;;;;;;;3.65;2.20;;;;;;;;;;6237120;28;20308;-75
2023/03/23 00:12:34;;;;;;;4.53;1.60;;;;;;;;;;6232969;28;20288;-75
2023/03/23 00:15:41;;;;;;;8.63;1.85;;;;;;;;;;6236982;28;20304;-75
2023/03/23 00:18:46;;;;;;;4.22;1.88;;;;;;;;;;6236773;28;20288;-74
2023/03/23 00:21:53;;;;;;;3.17;1.50;;;;;;;;;;6237358;28;20309;-75
2023/03/23 00:24:57;;;;;;;6.75;1.70;;;;;;;;;;6236406;28;20300;-74
2023/03/23 00:28:02;;;;;;;2.15;1.70;;;;;;;;;;6236759;28;20296;-76
2023/03/23 00:31:08;;;;;;;6.32;1.77;;;;;;;;;;6220695;28;20299;-76
2023/03/23 00:34:12;;;;;;;8.38;2.13;;;;;;;;;;6219887;28;20288;-75
2023/03/23 00:37:18;;;;;;;4.82;2.03;;;;;;;;;;6236211;28;20564;-75
2023/03/23 00:40:22;;;;;;;10.53;2.40;;;;;;;;;;6220042;28;20300;-74
2023/03/23 00:43:28;;;;;;;8.23;1.77;;;;;;;;;;6236241;28;20292;-74
2023/03/23 00:46:32;;;;;;;6.57;1.90;;;;;;;;;;6219181;28;20376;-76
2023/03/23 00:49:37;;;;;;;8.52;1.90;;;;;;;;;;6235224;28;20356;-76
2023/03/23 00:52:42;;;;;;;6.90;1.80;;;;;;;;;;6220302;28;20273;-74
2023/03/23 00:55:47;;;;;;;6.45;2.10;;;;;;;;;;6235435;28;20300;-75
2023/03/23 00:58:51;;;;;;;4.95;1.92;;;;;;;;;;6219796;28;20277;-74
2023/03/23 01:01:55;;;;;;;6.55;2.08;;;;;;;;;;6219377;28;20308;-76
2023/03/23 01:04:59;;;;;;;7.45;1.85;;;;;;;;;;6235096;28;20572;-75
2023/03/23 01:08:08;;;;;;;8.95;2.40;;;;;;;;;;6220008;28;20296;-75
2023/03/23 01:11:14;;;;;;;5.57;2.08;;;;;;;;;;6214788;28;20300;-75
2023/03/23 01:14:20;;;;;;;13.02;2.88;;;;;;;;;;6235214;28;20592;-75
2023/03/23 01:17:27;;;;;;;5.20;1.95;;;;;;;;;;6219745;28;20432;-76
2023/03/23 01:20:31;;;;;;;10.15;2.20;;;;;;;;;;6219126;28;20292;-75
2023/03/23 01:23:37;;;;;;;10.70;2.35;;;;;;;;;;6219695;28;20295;-75
2023/03/23 01:26:41;;;;;;;9.30;2.22;;;;;;;;;;6218488;28;20292;-75
2023/03/23 01:29:45;;;;;;;9.60;2.72;;;;;;;;;;6218745;28;20348;-75
2023/03/23 01:32:49;;;;;;;4.50;2.10;;;;;;;;;;6219124;28;20476;-74
2023/03/23 01:35:53;;;;;;;6.87;2.43;;;;;;;;;;6218515;28;20292;-75
2023/03/23 01:39:00;;;;;;;11.70;2.47;;;;;;;;;;6218302;28;20304;-74
2023/03/23 01:42:05;;;;;;;12.97;2.47;;;;;;;;;;6219044;28;20288;-74
2023/03/23 01:45:26;;;;;;;9.33;2.57;;;;;;;;;;6234590;28;20300;-75
2023/03/23 01:48:33;;;;;;;11.80;2.33;;;;;;;;;;6218684;28;20457;-75
2023/03/23 01:51:40;;;;;;;8.63;2.37;;;;;;;;;;6218258;28;20300;-75
2023/03/23 01:54:46;;;;;;;13.23;2.73;;;;;;;;;;6217820;28;20296;-75
2023/03/23 01:57:52;;;;;;;10.10;2.58;;;;;;;;;;6235027;28;20507;-76
2023/03/23 02:00:58;;;;;;;9.57;2.30;;;;;;;;;;6218355;28;20292;-74
2023/03/23 02:04:04;;;;;;;10.93;2.90;;;;;;;;;;6218140;28;20288;-76
2023/03/23 02:07:08;;;;;;;14.27;2.67;;;;;;;;;;6233881;28;20320;-74
2023/03/23 02:10:14;;;;;;;12.65;2.72;;;;;;;;;;6215619;28;20292;-75
2023/03/23 02:13:19;;;;;;;9.37;2.47;;;;;;;;;;6233174;28;20297;-75
2023/03/23 02:16:31;;;;;;;7.70;2.60;;;;;;;;;;6218017;28;20312;-75
2023/03/23 02:20:07;;;;;;;11.33;2.80;;;;;;;;;;6232784;28;20380;-75
2023/03/23 02:23:39;;;;;;;12.20;2.70;;;;;;;;;;6218299;28;20285;-75
2023/03/23 02:26:51;;;;;;;7.07;2.50;;;;;;;;;;6188404;28;20295;-74
2023/03/23 02:30:25;;;;;;;11.17;2.27;;;;;;;;;;6217367;28;20516;-76
2023/03/23 02:33:37;;;;;;;11.03;2.70;;;;;;;;;;6231626;28;20319;-75
2023/03/23 02:36:46;;;;;;;6.40;2.30;;;;;;;;;;6233201;28;20428;-76
2023/03/23 02:39:54;;;;;;;13.00;2.67;;;;;;;;;;6217623;28;20299;-75
2023/03/23 02:42:59;;;;;;;10.73;2.27;;;;;;;;;;6217381;28;20288;-75
2023/03/23 02:46:06;;;;;;;14.23;2.73;;;;;;;;;;6216522;28;20308;-75
2023/03/23 02:49:13;;;;;;;11.83;2.70;;;;;;;;;;6233491;28;20296;-76
2023/03/23 02:52:20;;;;;;;12.13;2.93;;;;;;;;;;6217597;28;20298;-75
2023/03/23 02:55:28;;;;;;;11.10;2.60;;;;;;;;;;6217025;28;20607;-75
2023/03/23 02:58:32;;;;;;;4.50;1.93;;;;;;;;;;6233811;28;20608;-75
2023/03/23 03:02:07;;;;;;;13.63;2.90;;;;;;;;;;6208345;28;20340;-76
2023/03/23 03:05:23;;;;;;;13.40;3.17;;;;;;;;;;6144014;28;20294;-76
2023/03/23 03:08:34;;;;;;;11.33;2.47;;;;;;;;;;6217349;28;20296;-74
2023/03/23 03:11:39;;;;;;;9.87;2.90;;;;;;;;;;6228209;28;20596;-75
2023/03/23 03:14:48;;;;;;;16.80;3.00;;;;;;;;;;6216633;28;20303;-75
2023/03/23 03:17:59;;;;;;;12.50;2.30;;;;;;;;;;6217351;28;20301;-75
2023/03/23 03:21:08;;;;;;;14.57;2.57;;;;;;;;;;6233132;28;20295;-74
2023/03/23 03:24:16;;;;;;;8.37;2.63;;;;;;;;;;6216510;28;20315;-75
2023/03/23 03:27:22;;;;;;;9.83;2.63;;;;;;;;;;6233495;28;20432;-74
2023/03/23 03:30:44;;;;;;;7.27;2.37;;;;;;;;;;6219073;28;20300;-75
2023/03/23 03:33:48;;;;;;;9.13;2.57;;;;;;;;;;6216743;28;20466;-75
2023/03/23 03:36:58;;;;;;;9.33;2.80;;;;;;;;;;6216817;28;20306;-75
2023/03/23 03:40:08;;;;;;;10.97;2.70;;;;;;;;;;6216843;28;20319;-75
2023/03/23 03:43:13;;;;;;;14.03;3.00;;;;;;;;;;6217293;28;20292;-75
2023/03/23 03:46:18;;;;;;;13.70;2.83;;;;;;;;;;6216297;28;20307;-75
2023/03/23 03:49:22;;;;;;;9.27;2.80;;;;;;;;;;6232357;28;20299;-75
2023/03/23 03:52:28;;;;;;;13.47;2.80;;;;;;;;;;6217070;28;20299;-75
2023/03/23 03:55:35;;;;;;;9.40;2.53;;;;;;;;;;6208467;28;20600;-75
2023/03/23 03:58:42;;;;;;;12.37;2.67;;;;;;;;;;6231339;28;20587;-74
2023/03/23 04:01:54;;;;;;;9.87;3.07;;;;;;;;;;6215728;28;20436;-75
2023/03/23 04:05:03;;;;;;;12.93;2.40;;;;;;;;;;6170678;28;20300;-75
2023/03/23 04:08:12;;;;;;;11.40;2.60;;;;;;;;;;6189879;28;20458;-74
2023/03/23 04:11:17;;;;;;;22.90;3.00;;;;;;;;;;6184491;28;20366;-74
2023/03/23 04:14:21;;;;;;;18.17;3.20;;;;;;;;;;6200057;28;20301;-74
2023/03/23 04:17:25;;;;;;;10.80;2.60;;;;;;;;;;6200015;28;20297;-75
2023/03/23 04:20:30;;;;;;;14.67;2.83;;;;;;;;;;6200337;28;20305;-74
2023/03/23 04:23:36;;;;;;;11.30;2.53;;;;;;;;;;6200136;28;20294;-73
2023/03/23 04:26:41;;;;;;;16.83;2.93;;;;;;;;;;6200429;28;20297;-76
2023/03/23 04:29:56;;;;;;;12.23;3.27;;;;;;;;;;6204498;28;20298;-75
2023/03/23 04:33:18;;;;;;;14.60;2.77;;;;;;;;;;6206415;28;20302;-74
2023/03/23 04:36:24;;;;;;;9.50;2.23;;;;;;;;;;6213883;28;20300;-75
2023/03/23 04:39:41;;;;;;;13.23;2.53;;;;;;;;;;6197103;28;20303;-75
2023/03/23 04:42:46;;;;;;;13.77;3.30;;;;;;;;;;6196069;28;20293;-74
2023/03/23 04:46:11;;;;;;;14.97;3.30;;;;;;;;;;6199244;28;20299;-75
2023/03/23 04:49:20;;;;;;;16.50;2.80;;;;;;;;;;6195929;28;20300;-75
2023/03/23 04:52:28;;;;;;;11.97;2.93;;;;;;;;;;6196249;28;20600;-75
2023/03/23 04:55:40;;;;;;;9.10;2.83;;;;;;;;;;6220377;28;20368;-76
2023/03/23 04:58:47;;;;;;;9.00;2.70;;;;;;;;;;6219998;28;20593;-74
2023/03/23 05:02:03;;;;;;;11.63;3.10;;;;;;;;;;6217479;28;20301;-74
2023/03/23 05:05:11;;;;;;;12.00;2.57;;;;;;;;;;6218862;28;20458;-75
2023/03/23 05:08:16;;;;;;;9.87;2.77;;;;;;;;;;6235660;28;20291;-74
2023/03/23 05:11:24;;;;;;;17.13;3.30;;;;;;;;;;6202183;28;20592;-75
2023/03/23 05:14:28;;;;;;;16.87;2.97;;;;;;;;;;6188239;28;20313;-75
2023/03/23 05:17:43;;;;;;;8.53;2.60;;;;;;;;;;6196157;28;20296;-75
2023/03/23 05:20:53;;;;;;;15.80;2.80;;;;;;;;;;6196083;28;20312;-74
2023/03/23 05:24:00;;;;;;;8.80;2.50;;;;;;;;;;6211258;28;20296;-76
2023/03/23 05:27:07;;;;;;;12.10;3.00;;;;;;;;;;6195451;28;20295;-75
2023/03/23 05:30:16;;;;;;;15.60;2.77;;;;;;;;;;6195062;28;20313;-75
2023/03/23 05:33:22;;;;;;;14.93;2.83;;;;;;;;;;6195291;28;20304;-75
2023/03/23 05:36:30;;;;;;;10.07;2.63;;;;;;;;;;6195657;28;20292;-74
2023/03/23 05:39:58;;;;;;;13.67;3.20;;;;;;;;;;6209054;28;20296;-75
2023/03/23 05:43:18;;;;;;;15.83;2.77;;;;;;;;;;6196769;28;20305;-75
2023/03/23 05:46:36;;;;;;;11.90;2.93;;;;;;;;;;6171989;28;20281;-76
2023/03/23 05:49:41;;;;;;;14.60;3.03;;;;;;;;;;6189294;28;20388;-75
2023/03/23 05:52:48;;;;;;;10.30;2.93;;;;;;;;;;6194980;28;20296;-75
2023/03/23 05:55:53;;;;;;;15.83;2.70;;;;;;;;;;6195063;28;20285;-75
2023/03/23 05:59:14;;;;;;;10.77;2.87;;;;;;;;;;6196596;28;20292;-75
2023/03/23 06:02:23;;;;;;;16.63;3.30;;;;;;;;;;6194381;28;20296;-75
2023/03/23 06:05:28;;;;;;;13.83;2.97;;;;;;;;;;6194359;28;20312;-74
2023/03/23 06:08:34;;;;;;;13.57;3.50;;;;;;;;;;6193692;28;20562;-75
2023/03/23 06:11:38;;;;;;;13.20;2.80;;;;;;;;;;6198176;28;20295;-76
2023/03/23 06:15:20;;;;;;;12.07;2.57;;;;;;;;;;6193637;28;20301;-75
2023/03/23 06:18:44;;;;;;;15.37;3.10;;;;;;;;;;6196751;28;20403;-76
2023/03/23 06:21:56;;;;;;;10.40;2.67;;;;;;;;;;6195517;28;20373;-76
2023/03/23 06:25:19;;;;;;;8.40;2.47;;;;;;;;;;6209801;28;20292;-76
2023/03/23 06:28:24;;;;;;;19.67;2.93;;;;;;;;;;6194624;28;20304;-76
2023/03/23 06:31:30;;;;;;;11.50;2.77;;;;;;;;;;6194832;28;20312;-76
2023/03/23 06:34:36;;;;;;;10.33;2.50;;;;;;;;;;6169099;28;20301;-76
2023/03/23 06:38:04;;;;;;;12.00;2.70;;;;;;;;;;6192049;28;20296;-76
2023/03/23 06:41:30;;;;;;;11.20;2.63;;;;;;;;;;6197224;28;20369;-76
2023/03/23 06:44:35;;;;;;;14.40;2.77;;;;;;;;;;6193296;28;20297;-75
2023/03/23 06:47:40;;;;;;;9.30;3.03;;;;;;;;;;6193510;28;20292;-76
2023/03/23 06:50:45;;;;;;;17.87;3.03;;;;;;;;;;6193633;28;20296;-75
2023/03/23 06:53:50;;;;;;;12.00;2.73;;;;;;;;;;6193194;28;20288;-75
2023/03/23 06:56:54;;;;;;;13.10;2.80;;;;;;;;;;6193492;28;20372;-76
2023/03/23 06:59:59;;;;;;;11.27;2.57;;;;;;;;;;6193149;28;20296;-76
2023/03/23 07:03:04;;;;;;;13.53;2.60;;;;;;;;;;6209302;28;20304;-75
2023/03/23 07:06:11;;;;;;;11.27;2.80;;;;;;;;;;6193926;28;20295;-76
2023/03/23 07:09:25;;;;;;;13.73;3.70;;;;;;;;;;6194372;28;20592;-75
2023/03/23 07:12:29;;;;;;;13.60;3.00;;;;;;;;;;6229414;28;20296;-76
2023/03/23 07:15:33;;;;;;;15.33;2.70;;;;;;;;;;6217613;28;20288;-76
2023/03/23 07:18:39;;;;;;;12.10;2.42;;;;;;;;;;6216820;28;20604;-76
2023/03/23 07:21:44;;;;;;;10.73;2.40;;;;;;;;;;6217559;28;20293;-77
2023/03/23 07:24:48;;;;;;;10.33;3.07;;;;;;;;;;6216874;28;20315;-76
2023/03/23 07:28:08;;;;;;;8.20;2.42;;;;;;;;;;6219162;28;20297;-75
2023/03/23 07:31:12;;;;;;;15.20;3.03;;;;;;;;;;6217989;28;20292;-76
2023/03/23 07:34:18;;;;;;;11.37;2.67;;;;;;;;;;6216935;28;20311;-76
2023/03/23 07:37:39;;;;;;;19.97;3.87;;;;;;;;;;6212679;28;20300;-74
2023/03/23 07:40:44;;;;;;;10.23;2.20;;;;;;;;;;6201263;28;20276;-77
2023/03/23 07:43:54;;;;;;;10.38;2.55;;;;;;;;;;6217841;28;20300;-76
2023/03/23 07:47:06;;;;;;;9.35;2.38;;;;;;;;;;6218744;28;20288;-75
2023/03/23 07:50:14;;;;;;;11.02;3.00;;;;;;;;;;6217177;28;20603;-76
2023/03/23 07:53:21;;;;;;;10.37;2.30;;;;;;;;;;6217813;28;20296;-75
2023/03/23 07:56:32;;;;;;;10.02;2.30;;;;;;;;;;6218232;28;20292;-75
2023/03/23 07:59:47;;;;;;;15.30;2.50;;;;;;;;;;6218676;28;20584;-75
2023/03/23 08:02:53;;;;;;;15.23;2.50;;;;;;;;;;6216384;28;20305;-75
2023/03/23 08:06:08;;;;;;;6.80;2.70;;;;;;;;;;6238460;28;20439;-75
2023/03/23 08:09:42;;;;;;;9.90;2.50;;;;;;;;;;6200583;28;20458;-77
2023/03/23 08:13:01;;;;;;;14.93;3.20;;;;;;;;;;6223434;28;20296;-75
2023/03/23 08:16:25;;;;;;;14.77;2.75;;;;;;;;;;6224311;28;20297;-76
2023/03/23 08:19:52;;;;;;;8.88;2.40;;;;;;;;;;6222767;28;20296;-76
2023/03/23 08:23:26;;;;;;;13.00;2.60;;;;;;;;;;6225168;28;20300;-76
2023/03/23 08:26:49;;;;;;;11.15;2.35;;;;;;;;;;6238517;28;20579;-76
2023/03/23 08:30:03;;;;;;;11.50;2.78;;;;;;;;;;6237520;28;20301;-77
2023/03/23 08:33:36;;;;;;;14.13;3.05;;;;;;;;;;6228492;28;20311;-76
2023/03/23 08:37:07;;;;;;;15.57;2.63;;;;;;;;;;6235974;28;20612;-76
2023/03/23 08:40:35;;;;;;;14.02;2.33;;;;;;;;;;6218534;28;20300;-76
2023/03/23 08:44:08;;;;;;;12.70;2.40;;;;;;;;;;6224103;28;20296;-76
2023/03/23 08:47:32;;;;;;;9.23;2.30;;;;;;;;;;6207929;28;20300;-76
2023/03/23 08:51:10;;;;;;;7.53;2.72;;;;;;;;;;6225639;28;20433;-76
2023/03/23 08:54:49;;;;;;;23.17;2.72;;;;;;;;;;6223520;28;20300;-76
2023/03/23 08:58:18;;;;;;;13.50;3.03;;;;;;;;;;6215082;28;20433;-75
2023/03/23 09:01:34;;;;;;;14.23;2.67;;;;;;;;;;6221676;28;20292;-77
2023/03/23 09:04:57;;;;;;;17.23;2.70;;;;;;;;;;6221411;28;20293;-75
2023/03/23 09:08:17;;;;;;;10.48;2.50;;;;;;;;;;6222739;28;20300;-76
2023/03/23 09:11:21;;;;;;;17.17;2.85;;;;;;;;;;6216360;28;20300;-75
2023/03/23 09:14:27;;;;;;;36.33;3.38;;;;;;;;;;6236061;28;20292;-76
2023/03/23 09:17:31;;;;;;;10.80;2.55;;;;;;;;;;6235952;28;20304;-75
2023/03/23 09:20:37;;;;;;;13.30;2.80;;;;;;;;;;6236091;28;20300;-76
2023/03/23 09:23:43;;;;;;;15.00;3.25;;;;;;;;;;6235569;28;20296;-75
2023/03/23 09:26:47;;;;;;;14.27;3.00;;;;;;;;;;6236045;28;20462;-76
2023/03/23 09:29:53;;;;;;;15.20;3.17;;;;;;;;;;6235673;28;20579;-77
2023/03/23 09:32:57;;;;;;;16.58;2.95;;;;;;;;;;6235361;28;20292;-75
2023/03/23 09:36:02;;;;;;;11.88;2.63;;;;;;;;;;6235827;28;20288;-76
2023/03/23 09:39:09;;;;;;;14.50;2.58;;;;;;;;;;6235503;28;20469;-76
2023/03/23 09:42:25;;;;;;;16.27;3.42;;;;;;;;;;6219733;28;20300;-75
2023/03/23 09:45:36;;;;;;;13.02;2.92;;;;;;;;;;6234870;28;20288;-76
2023/03/23 09:48:47;;;;;;;10.85;3.28;;;;;;;;;;6235167;28;20299;-73
2023/03/23 09:51:54;;;;;;;17.48;2.80;;;;;;;;;;6219469;28;20304;-76
2023/03/23 09:54:58;;;;;;;11.80;3.05;;;;;;;;;;6234857;28;20295;-77
2023/03/23 09:58:10;;;;;;;13.88;2.95;;;;;;;;;;6235394;28;20287;-76
2023/03/23 10:01:19;;;;;;;11.23;2.42;;;;;;;;;;6211095;28;20304;-76
2023/03/23 10:04:31;;;;;;;14.82;2.80;;;;;;;;;;6210240;28;20301;-76
2023/03/23 10:07:35;;;;;;;18.33;2.85;;;;;;;;;;6210006;28;20269;-73
2023/03/23 10:10:47;;;;;;;8.45;2.60;;;;;;;;;;6190630;28;20269;-76
2023/03/23 10:14:04;;;;;;;13.73;2.60;;;;;;;;;;6186297;28;20369;-74
2023/03/23 10:17:16;;;;;;;9.23;2.60;;;;;;;;;;6186449;28;20467;-76
2023/03/23 10:20:29;;;;;;;27.35;3.33;;;;;;;;;;6208003;28;20317;-75
2023/03/23 10:23:51;;;;;;;8.65;2.70;;;;;;;;;;6210551;28;20301;-75
2023/03/23 10:27:02;;;;;;;17.40;2.72;;;;;;;;;;6210435;28;20589;-75
2023/03/23 10:30:17;;;;;;;15.13;3.53;;;;;;;;;;6210391;28;20308;-77
2023/03/23 10:33:26;;;;;;;9.30;2.25;;;;;;;;;;6210242;28;20330;-76
2023/03/23 10:36:33;;;;;;;13.98;2.47;;;;;;;;;;6210091;28;20293;-77
2023/03/23 10:39:43;;;;;;;15.18;2.80;;;;;;;;;;6210000;28;20297;-75
2023/03/23 10:42:48;;;;;;;24.20;3.00;;;;;;;;;;6210165;28;20289;-76
2023/03/23 10:45:56;;;;;;;13.18;2.80;;;;;;;;;;6210161;28;20309;-77
2023/03/23 10:49:04;;;;;;;11.48;2.20;;;;;;;;;;6209859;28;20300;-76
2023/03/23 10:52:19;;;;;;;13.32;2.70;;;;;;;;;;6210264;28;20297;-76
2023/03/23 10:55:26;;;;;;;13.85;2.58;;;;;;;;;;6209285;28;20297;-77
2023/03/23 10:58:33;;;;;;;22.35;2.95;;;;;;;;;;6209453;28;20301;-76
2023/03/23 11:01:37;;;;;;;11.23;2.30;;;;;;;;;;6209010;28;20269;-75
2023/03/23 11:04:48;;;;;;;12.02;2.20;;;;;;;;;;6209179;28;20307;-75
2023/03/23 11:07:54;;;;;;;7.63;2.38;;;;;;;;;;6193328;28;20462;-76
2023/03/23 11:11:00;;;;;;;10.88;2.53;;;;;;;;;;6197396;28;20288;-77
2023/03/23 11:14:17;;;;;;;10.63;2.33;;;;;;;;;;6208824;28;20454;-76
2023/03/23 11:17:24;;;;;;;8.27;2.72;;;;;;;;;;6209028;28;20293;-77
2023/03/23 11:20:35;;;;;;;22.13;3.85;;;;;;;;;;6209406;28;20297;-76
2023/03/23 11:23:42;;;;;;;11.65;2.40;;;;;;;;;;6209425;28;20553;-76
2023/03/23 11:26:48;;;;;;;8.13;2.50;;;;;;;;;;6209716;28;20297;-77
2023/03/23 11:29:54;;;;;;;9.65;2.80;;;;;;;;;;6209203;28;20296;-76
2023/03/23 11:33:02;;;;;;;12.68;3.20;;;;;;;;;;6208808;28;20457;-76
2023/03/23 11:36:09;;;;;;;15.00;3.17;;;;;;;;;;6209654;28;20449;-76
2023/03/23 11:39:26;;;;;;;15.13;2.70;;;;;;;;;;6212598;28;20304;-77
2023/03/23 11:42:37;;;;;;;10.15;2.25;;;;;;;;;;6213574;28;20298;-77
2023/03/23 11:45:48;;;;;;;15.32;3.13;;;;;;;;;;6213995;28;20285;-77
2023/03/23 11:48:58;;;;;;;26.35;3.88;;;;;;;;;;6213470;28;20300;-76
2023/03/23 11:52:10;;;;;;;16.50;3.38;;;;;;;;;;6214371;28;20292;-77
2023/03/23 11:55:19;;;;;;;13.38;2.83;;;;;;;;;;6214575;28;20408;-76
2023/03/23 11:58:23;;;;;;;11.80;2.67;;;;;;;;;;6212817;28;20300;-77
2023/03/23 12:01:45;;;;;;;9.25;2.65;;;;;;;;;;6214333;28;20313;-76
2023/03/23 12:05:00;;;;;;;15.00;2.83;;;;;;;;;;6211964;28;20306;-77
2023/03/23 12:08:22;;;;;;;12.05;2.92;;;;;;;;;;6213480;28;20293;-76
2023/03/23 12:11:38;;;;;;;12.35;2.67;;;;;;;;;;6217826;28;20293;-77
2023/03/23 12:14:49;;;;;;;18.10;2.55;;;;;;;;;;6214392;28;20303;-77
2023/03/23 12:17:59;;;;;;;10.90;2.50;;;;;;;;;;6213617;28;20285;-77
2023/03/23 12:21:11;;;;;;;13.50;2.97;;;;;;;;;;6213714;28;20297;-77
2023/03/23 12:24:25;;;;;;;26.05;3.67;;;;;;;;;;6213526;28;20296;-76
2023/03/23 12:27:34;;;;;;;21.85;3.33;;;;;;;;;;6213605;28;20490;-77
2023/03/23 12:30:43;;;;;;;13.73;2.75;;;;;;;;;;6213833;28;20308;-77
2023/03/23 12:33:55;;;;;;;18.13;3.08;;;;;;;;;;6197140;28;20293;-77
2023/03/23 12:37:12;;;;;;;15.80;2.97;;;;;;;;;;6213885;28;20289;-77
2023/03/23 12:40:36;;;;;;;17.10;2.97;;;;;;;;;;6212533;28;20309;-77
2023/03/23 12:43:49;;;;;;;18.65;2.72;;;;;;;;;;6198765;28;20289;-76
2023/03/23 12:47:20;;;;;;;12.15;3.17;;;;;;;;;;6212433;28;20274;-76
2023/03/23 12:50:29;;;;;;;9.45;2.50;;;;;;;;;;6211304;28;20296;-77
2023/03/23 12:53:36;;;;;;;11.88;3.25;;;;;;;;;;6212363;28;20597;-77
2023/03/23 12:56:45;;;;;;;13.90;3.35;;;;;;;;;;6212920;28;20308;-77
2023/03/23 12:59:53;;;;;;;16.92;2.80;;;;;;;;;;6212387;28;20313;-77
2023/03/23 13:03:02;;;;;;;21.17;3.10;;;;;;;;;;6211560;28;20558;-77
2023/03/23 13:06:13;;;;;;;17.80;2.70;;;;;;;;;;6212335;28;20293;-77
2023/03/23 13:09:21;;;;;;;20.17;3.03;;;;;;;;;;6212023;28;20624;-78
2023/03/23 13:12:27;;;;;;;13.35;2.63;;;;;;;;;;6236199;28;20292;-77
2023/03/23 13:15:38;;;;;;;20.10;2.88;;;;;;;;;;6220721;28;20296;-77
2023/03/23 13:18:48;;;;;;;14.10;3.33;;;;;;;;;;6235907;28;20296;-77
2023/03/23 13:21:58;;;;;;;10.00;3.17;;;;;;;;;;6236949;28;20320;-78
2023/03/23 13:25:04;;;;;;;17.00;2.28;;;;;;;;;;6235947;28;20308;-77
2023/03/23 13:28:20;;;;;;;12.85;3.13;;;;;;;;;;6235735;28;20568;-76
2023/03/23 13:31:26;;;;;;;12.73;2.70;;;;;;;;;;6236787;28;20300;-76
2023/03/23 13:34:32;;;;;;;11.60;2.30;;;;;;;;;;6235637;28;20292;-77
2023/03/23 13:37:36;;;;;;;13.45;2.60;;;;;;;;;;6234823;28;20276;-76
2023/03/23 13:40:44;;;;;;;14.88;2.47;;;;;;;;;;6235248;28;20459;-77
2023/03/23 13:43:50;;;;;;;12.70;2.33;;;;;;;;;;6235362;28;20469;-76
2023/03/23 13:47:05;;;;;;;17.33;3.58;;;;;;;;;;6236058;28;20269;-76
2023/03/23 13:50:29;;;;;;;14.52;2.40;;;;;;;;;;6235171;28;20308;-77
2023/03/23 13:53:45;;;;;;;9.90;2.67;;;;;;;;;;6219532;28;20564;-76
2023/03/23 13:56:56;;;;;;;9.02;2.38;;;;;;;;;;6235612;28;20316;-76
2023/03/23 14:00:26;;;;;;;11.23;2.47;;;;;;;;;;6218690;28;20296;-77
2023/03/23 14:03:38;;;;;;;11.02;2.40;;;;;;;;;;6233933;28;20300;-77
2023/03/23 14:06:42;;;;;;;12.63;2.88;;;;;;;;;;6219597;28;20292;-77
2023/03/23 14:09:54;;;;;;;20.77;4.00;;;;;;;;;;6216009;28;20297;-77
2023/03/23 14:13:01;;;;;;;12.65;2.53;;;;;;;;;;6210603;28;20293;-77
2023/03/23 14:16:15;;;;;;;13.13;2.47;;;;;;;;;;6211308;28;20313;-76
2023/03/23 14:19:23;;;;;;;12.05;2.70;;;;;;;;;;6210646;28;20297;-78
2023/03/23 14:22:29;;;;;;;10.65;2.50;;;;;;;;;;6210119;28;20293;-78
2023/03/23 14:25:33;;;;;;;10.00;3.05;;;;;;;;;;6210732;28;20302;-76
2023/03/23 14:28:42;;;;;;;15.55;2.80;;;;;;;;;;6209231;28;20487;-76
2023/03/23 14:31:53;;;;;;;17.27;2.55;;;;;;;;;;6170630;28;20279;-79
2023/03/23 14:34:57;;;;;;;7.85;2.50;;;;;;;;;;6207029;28;20297;-76
2023/03/23 14:38:02;;;;;;;11.20;2.45;;;;;;;;;;6210392;28;20297;-77
2023/03/23 14:41:07;;;;;;;12.20;2.60;;;;;;;;;;6210818;28;20471;-78
2023/03/23 14:44:16;;;;;;;9.98;2.20;;;;;;;;;;6194529;28;20300;-78
2023/03/23 14:47:24;;;;;;;4.43;2.30;;;;;;;;;;6209553;28;20305;-77
2023/03/23 14:50:30;;;;;;;7.57;2.35;;;;;;;;;;6209873;28;20300;-78
2023/03/23 14:53:36;;;;;;;13.00;2.15;;;;;;;;;;6209499;28;20292;-79
2023/03/23 14:56:43;;;;;;;12.52;2.50;;;;;;;;;;6210090;28;20289;-77
2023/03/23 14:59:48;;;;;;;8.20;2.10;;;;;;;;;;6209425;28;20457;-76
2023/03/23 15:02:55;;;;;;;18.10;2.22;;;;;;;;;;6209157;28;20393;-78
2023/03/23 15:06:02;;;;;;;10.63;2.10;;;;;;;;;;6210058;28;20309;-80
2023/03/23 15:09:11;;;;;;;8.57;1.75;;;;;;;;;;6209098;28;20354;-76
2023/03/23 15:12:23;;;;;;;10.20;2.28;;;;;;;;;;6213193;28;20553;-77
2023/03/23 15:15:28;;;;;;;17.35;2.33;;;;;;;;;;6209047;28;20461;-77
2023/03/23 15:18:37;;;;;;;8.40;1.73;;;;;;;;;;6209661;28;20293;-77
2023/03/23 15:21:50;;;;;;;9.88;2.17;;;;;;;;;;6193831;28;20293;-81
2023/03/23 15:25:09;;;;;;;13.75;1.95;;;;;;;;;;6209820;28;20446;-82
2023/03/23 15:28:19;;;;;;;6.32;2.15;;;;;;;;;;6193078;28;20297;-75
2023/03/23 15:31:26;;;;;;;19.80;3.97;;;;;;;;;;6209535;28;20301;-75
2023/03/23 15:34:38;;;;;;;9.23;2.33;;;;;;;;;;6208315;28;20318;-76
2023/03/23 15:37:46;;;;;;;7.63;2.50;;;;;;;;;;6208097;28;20288;-75
2023/03/23 15:40:52;;;;;;;10.65;2.60;;;;;;;;;;6192668;28;20273;-75
2023/03/23 15:43:58;;;;;;;11.32;2.38;;;;;;;;;;6208689;28;20287;-73
2023/03/23 15:47:21;;;;;;;7.22;2.30;;;;;;;;;;6209442;28;20458;-76
2023/03/23 15:50:36;;;;;;;5.97;2.15;;;;;;;;;;6208811;28;20293;-77
2023/03/23 15:53:41;;;;;;;9.88;2.22;;;;;;;;;;6208793;28;20308;-77
2023/03/23 15:56:45;;;;;;;16.88;2.38;;;;;;;;;;6193224;28;20292;-77
2023/03/23 15:59:50;;;;;;;4.47;2.05;;;;;;;;;;6193257;28;20301;-78
2023/03/23 16:02:57;;;;;;;11.48;2.85;;;;;;;;;;6209394;28;20292;-80
2023/03/23 16:06:05;;;;;;;9.52;2.20;;;;;;;;;;6210370;28;20294;-77
2023/03/23 16:09:14;;;;;;;11.82;2.33;;;;;;;;;;6209966;28;20313;-78
2023/03/23 16:12:20;;;;;;;13.00;2.35;;;;;;;;;;6213639;28;20310;-76
2023/03/23 16:15:25;;;;;;;9.75;2.40;;;;;;;;;;6210322;28;20293;-77
2023/03/23 16:18:30;;;;;;;9.07;2.72;;;;;;;;;;6209965;28;20305;-75
2023/03/23 16:21:37;;;;;;;21.75;2.55;;;;;;;;;;6209790;28;20293;-76
2023/03/23 16:24:42;;;;;;;25.23;3.08;;;;;;;;;;6210907;28;20341;-76
2023/03/23 16:27:49;;;;;;;14.50;2.30;;;;;;;;;;6213901;28;20479;-77
2023/03/23 16:30:56;;;;;;;8.48;1.90;;;;;;;;;;6214144;28;20384;-77
2023/03/23 16:34:02;;;;;;;8.00;2.42;;;;;;;;;;6213693;28;20301;-77
2023/03/23 16:37:09;;;;;;;16.95;2.85;;;;;;;;;;6214018;28;20317;-78
2023/03/23 16:40:15;;;;;;;8.57;2.00;;;;;;;;;;6214106;28;20569;-77
2023/03/23 16:43:21;;;;;;;9.23;2.63;;;;;;;;;;6213343;28;20470;-77
2023/03/23 16:46:26;;;;;;;10.40;3.55;;;;;;;;;;6214199;28;20457;-76
2023/03/23 16:49:32;;;;;;;7.15;2.28;;;;;;;;;;6213296;28;20305;-76
2023/03/23 16:52:39;;;;;;;10.13;2.13;;;;;;;;;;6211882;28;20569;-75
2023/03/23 16:55:52;;;;;;;10.75;2.35;;;;;;;;;;6213513;28;20497;-76
2023/03/23 16:59:01;;;;;;;12.15;2.70;;;;;;;;;;6212619;28;20289;-77
2023/03/23 17:02:07;;;;;;;6.78;3.08;;;;;;;;;;6213049;28;20293;-77
2023/03/23 17:05:12;;;;;;;9.10;3.05;;;;;;;;;;6212286;28;20592;-76
2023/03/23 17:08:19;;;;;;;13.95;2.95;;;;;;;;;;6212891;28;20569;-76
2023/03/23 17:11:24;;;;;;;6.72;2.88;;;;;;;;;;6217416;28;20293;-77
2023/03/23 17:14:29;;;;;;;5.95;2.67;;;;;;;;;;6211812;28;20301;-75
2023/03/23 17:17:35;;;;;;;7.55;2.90;;;;;;;;;;6212564;28;20505;-75
2023/03/23 17:20:40;;;;;;;9.18;3.08;;;;;;;;;;6213053;28;20557;-76
2023/03/23 17:23:47;;;;;;;10.57;2.67;;;;;;;;;;6212808;28;20312;-76
2023/03/23 17:26:52;;;;;;;4.93;2.65;;;;;;;;;;6213009;28;20478;-77
2023/03/23 17:29:57;;;;;;;8.55;3.20;;;;;;;;;;6213284;28;20288;-76
2023/03/23 17:33:02;;;;;;;4.32;2.45;;;;;;;;;;6212149;28;20293;-76
2023/03/23 17:36:08;;;;;;;8.57;3.20;;;;;;;;;;6212400;28;20292;-76
2023/03/23 17:39:15;;;;;;;11.63;3.05;;;;;;;;;;6212103;28;20556;-75
2023/03/23 17:42:20;;;;;;;8.35;3.08;;;;;;;;;;6212184;28;20301;-74
2023/03/23 17:45:26;;;;;;;7.68;3.38;;;;;;;;;;6212089;28;20367;-77
2023/03/23 17:48:31;;;;;;;6.38;3.10;;;;;;;;;;6211896;28;20289;-73
2023/03/23 17:51:36;;;;;;;4.07;2.80;;;;;;;;;;6212211;28;20293;-74
2023/03/23 17:54:42;;;;;;;4.57;2.58;;;;;;;;;;6211532;28;20301;-74
2023/03/23 17:57:47;;;;;;;4.20;2.83;;;;;;;;;;6211375;28;20288;-73
2023/03/23 18:00:53;;;;;;;4.03;3.00;;;;;;;;;;6211296;28;20296;-73
2023/03/23 18:03:58;;;;;;;4.72;3.33;;;;;;;;;;6211289;28;20308;-75
2023/03/23 18:07:03;;;;;;;10.75;3.00;;;;;;;;;;6212303;28;20298;-75
2023/03/23 18:10:11;;;;;;;4.00;2.83;;;;;;;;;;6217126;28;20586;-75
2023/03/23 18:13:17;;;;;;;9.02;3.40;;;;;;;;;;6235886;28;20576;-76
2023/03/23 18:16:22;;;;;;;3.10;2.90;;;;;;;;;;6236213;28;20604;-76
2023/03/23 18:19:27;;;;;;;4.20;3.05;;;;;;;;;;6235798;28;20541;-76
2023/03/23 18:22:32;;;;;;;6.97;3.30;;;;;;;;;;6234206;28;20304;-77
2023/03/23 18:25:39;;;;;;;5.10;3.08;;;;;;;;;;6210139;28;20273;-76
2023/03/23 18:28:44;;;;;;;3.65;3.30;;;;;;;;;;6234990;28;20304;-76
2023/03/23 18:31:49;;;;;;;4.72;3.30;;;;;;;;;;6235907;28;20269;-76
2023/03/23 18:34:55;;;;;;;4.53;2.92;;;;;;;;;;6235788;28;20296;-76
2023/03/23 18:38:00;;;;;;;6.47;3.63;;;;;;;;;;6235625;28;20356;-77
2023/03/23 18:41:09;;;;;;;3.67;3.38;;;;;;;;;;6235754;28;20300;-76
2023/03/23 18:44:14;;;;;;;6.20;3.42;;;;;;;;;;6235218;28;20304;-75